createdAt,value
2022-12-15T00:02:51.532Z,14.60
2022-12-15T00:08:24.810Z,14.50
2022-12-15T00:13:49.723Z,14.20
2022-12-15T00:19:14.700Z,18.90
2022-12-15T00:24:40.098Z,15.60
2022-12-15T00:30:05.221Z,15.00
2022-12-15T00:35:31.343Z,14.30
2022-12-15T00:40:38.951Z,15.30
2022-12-15T00:46:12.454Z,11.80
2022-12-15T00:51:20.794Z,11.70
2022-12-15T00:56:48.107Z,23.30
2022-12-15T01:02:13.103Z,15.70
2022-12-15T01:07:38.612Z,12.90
2022-12-15T01:13:05.048Z,14.10
2022-12-15T01:18:29.994Z,12.20
2022-12-15T01:23:38.599Z,20.80
2022-12-15T01:28:46.252Z,13.50
2022-12-15T01:33:56.732Z,22.50
2022-12-15T01:39:10.857Z,11.70
2022-12-15T01:44:21.935Z,19.50
2022-12-15T01:49:33.045Z,17.20
2022-12-15T01:54:44.348Z,17.90
2022-12-15T01:59:59.147Z,18.20
2022-12-15T02:05:09.004Z,18.00
2022-12-15T02:13:53.254Z,15.70
2022-12-15T02:19:10.585Z,20.50
2022-12-15T02:24:49.724Z,22.80
2022-12-15T02:30:31.470Z,21.80
2022-12-15T02:36:03.397Z,25.20
2022-12-15T02:41:39.206Z,22.80
2022-12-15T02:47:05.963Z,20.70
2022-12-15T02:52:27.799Z,17.80
2022-12-15T02:58:01.169Z,19.90
2022-12-15T03:03:09.817Z,20.80
2022-12-15T03:08:17.222Z,26.30
2022-12-15T03:13:31.480Z,30.80
2022-12-15T03:18:43.197Z,29.00
2022-12-15T03:23:50.647Z,29.70
2022-12-15T03:28:58.197Z,28.60
2022-12-15T03:34:05.757Z,26.00
2022-12-15T03:39:14.121Z,26.20
2022-12-15T03:44:21.386Z,29.40
2022-12-15T03:49:28.876Z,35.40
2022-12-15T03:59:48.500Z,37.10
2022-12-15T04:04:56.099Z,38.10
2022-12-15T04:10:03.442Z,34.90
2022-12-15T04:15:13.046Z,33.10
2022-12-15T04:20:24.293Z,35.00
2022-12-15T04:25:49.000Z,37.80
2022-12-15T04:31:16.934Z,40.00
2022-12-15T04:36:43.091Z,47.30
2022-12-15T04:42:08.036Z,36.60
2022-12-15T04:47:33.139Z,36.00
2022-12-15T04:52:57.845Z,37.10
2022-12-15T04:58:29.614Z,27.70
2022-12-15T05:09:37.579Z,42.10
2022-12-15T05:15:03.046Z,43.80
2022-12-15T05:20:29.306Z,39.70
2022-12-15T05:25:55.801Z,42.30
2022-12-15T05:31:28.337Z,42.00
2022-12-15T05:36:38.868Z,39.10
2022-12-15T05:41:47.730Z,39.50
2022-12-15T05:46:55.720Z,46.10
2022-12-15T05:52:04.031Z,43.60
2022-12-15T05:57:11.253Z,43.60
2022-12-15T06:02:19.124Z,42.00
2022-12-15T06:07:27.047Z,42.50
2022-12-15T06:12:34.761Z,41.50
2022-12-15T06:17:41.996Z,50.30
2022-12-15T06:22:50.440Z,45.30
2022-12-15T06:28:01.728Z,43.20
2022-12-15T06:33:10.921Z,31.60
2022-12-15T06:38:21.778Z,30.70
2022-12-15T06:43:33.658Z,30.30
2022-12-15T06:48:45.312Z,44.50
2022-12-15T06:53:56.532Z,44.10
2022-12-15T06:59:06.472Z,44.40
2022-12-15T07:04:14.430Z,45.00
2022-12-15T07:09:22.064Z,33.40
2022-12-15T07:14:30.691Z,33.10
2022-12-15T07:19:38.195Z,33.20
2022-12-15T07:24:46.230Z,36.40
2022-12-15T07:29:53.834Z,38.10
2022-12-15T07:35:05.487Z,35.80
2022-12-15T07:40:14.291Z,30.40
2022-12-15T07:45:22.083Z,30.90
2022-12-15T07:50:30.403Z,32.70
2022-12-15T07:56:06.423Z,29.80
2022-12-15T08:01:16.474Z,20.60
2022-12-15T08:06:23.925Z,30.30
2022-12-15T08:11:35.461Z,23.80
2022-12-15T08:16:43.933Z,29.20
2022-12-15T08:21:51.635Z,26.90
2022-12-15T08:27:01.617Z,13.80
2022-12-15T08:32:10.910Z,20.90
2022-12-15T08:42:58.429Z,24.80
2022-12-15T08:48:06.062Z,27.70
2022-12-15T08:53:30.918Z,28.80
2022-12-15T08:58:40.660Z,17.60
2022-12-15T09:03:50.721Z,31.50
2022-12-15T09:09:15.652Z,26.00
2022-12-15T09:14:29.457Z,25.20
2022-12-15T09:19:37.321Z,24.30
2022-12-15T09:24:44.658Z,28.90
2022-12-15T09:29:52.254Z,32.10
2022-12-15T09:34:59.656Z,19.00
2022-12-15T09:45:21.259Z,21.70
2022-12-15T09:50:35.352Z,28.30
2022-12-15T09:55:45.376Z,17.90
2022-12-15T10:01:03.189Z,22.50
2022-12-15T10:06:16.993Z,21.80
2022-12-15T10:11:42.427Z,18.10
2022-12-15T10:17:00.205Z,14.70
2022-12-15T10:27:36.351Z,22.80
2022-12-15T10:33:00.542Z,20.30
2022-12-15T10:38:15.560Z,24.10
2022-12-15T10:43:31.421Z,11.90
2022-12-15T10:48:39.780Z,19.20
2022-12-15T10:53:50.944Z,22.30
2022-12-15T10:59:00.285Z,13.30
2022-12-15T11:04:25.490Z,17.10
2022-12-15T11:09:36.704Z,20.20
2022-12-15T11:14:47.917Z,12.80
2022-12-15T11:20:02.984Z,13.40
2022-12-15T11:25:22.302Z,19.70
2022-12-15T11:30:35.171Z,17.80
2022-12-15T11:35:55.532Z,11.90
2022-12-15T11:41:13.637Z,17.80
2022-12-15T11:46:25.344Z,15.60
2022-12-15T11:51:45.406Z,18.50
2022-12-15T11:56:58.193Z,19.30
2022-12-15T12:02:25.486Z,22.40
2022-12-15T12:07:42.452Z,21.30
2022-12-15T12:13:01.576Z,22.20
2022-12-15T12:18:15.410Z,17.60
2022-12-15T12:23:39.822Z,19.70
2022-12-15T12:28:58.481Z,19.00
2022-12-15T12:34:14.749Z,25.10
2022-12-15T12:39:25.758Z,21.60
2022-12-15T12:44:35.619Z,20.40
2022-12-15T12:49:47.020Z,22.30
2022-12-15T12:55:05.034Z,21.90
2022-12-15T13:00:24.040Z,23.50
2022-12-15T13:05:36.356Z,23.00
2022-12-15T13:10:45.552Z,19.60
2022-12-15T13:16:03.598Z,22.50
2022-12-15T13:21:52.876Z,23.90
2022-12-15T13:27:17.417Z,22.00
2022-12-15T13:32:40.144Z,25.50
2022-12-15T13:37:54.346Z,22.60
2022-12-15T13:43:09.423Z,24.40
2022-12-15T13:48:33.012Z,24.40
2022-12-15T13:53:51.488Z,24.40
2022-12-15T13:59:06.309Z,23.50
2022-12-15T14:04:16.815Z,23.70
2022-12-15T14:09:41.431Z,27.80
2022-12-15T14:14:53.305Z,32.00
2022-12-15T14:20:11.867Z,31.00
2022-12-15T14:25:23.074Z,31.00
2022-12-15T14:30:33.878Z,28.80
2022-12-15T14:35:49.469Z,26.50
2022-12-15T14:41:02.151Z,25.60
2022-12-15T14:46:13.015Z,30.80
2022-12-15T14:51:20.886Z,30.10
2022-12-15T14:56:31.776Z,26.30
2022-12-15T15:01:41.850Z,28.70
2022-12-15T15:06:55.196Z,29.90
2022-12-15T15:12:07.204Z,27.90
2022-12-15T15:17:25.552Z,27.60
2022-12-15T15:22:41.097Z,25.80
2022-12-15T15:27:48.823Z,34.70
2022-12-15T15:32:58.640Z,31.50
2022-12-15T15:38:12.792Z,30.90
2022-12-15T15:43:20.784Z,31.60
2022-12-15T15:48:32.404Z,31.00
2022-12-15T15:53:40.535Z,30.20
2022-12-15T15:58:48.556Z,27.60
2022-12-15T16:03:55.718Z,35.50
2022-12-15T16:09:03.290Z,33.40
2022-12-15T16:14:14.551Z,37.30
2022-12-15T16:19:21.914Z,35.40
2022-12-15T16:24:29.359Z,31.00
2022-12-15T16:29:38.537Z,31.50
2022-12-15T16:34:45.902Z,32.80
2022-12-15T16:43:19.852Z,26.40
2022-12-15T16:48:27.182Z,33.40
2022-12-15T16:53:37.970Z,34.00
2022-12-15T16:58:48.759Z,33.20
2022-12-15T17:04:00.562Z,33.30
2022-12-15T17:09:09.575Z,29.80
2022-12-15T17:14:17.079Z,36.40
2022-12-15T17:19:24.391Z,33.80
2022-12-15T17:29:37.343Z,35.10
2022-12-15T17:39:51.915Z,29.30
2022-12-15T17:44:59.406Z,33.10
2022-12-15T17:50:07.651Z,27.20
2022-12-15T17:55:34.836Z,33.70
2022-12-15T18:00:48.914Z,26.30
2022-12-15T18:06:07.614Z,39.30
2022-12-15T18:11:17.977Z,42.40
2022-12-15T18:16:25.288Z,37.40
2022-12-15T18:21:32.691Z,39.50
2022-12-15T18:26:40.623Z,35.50
2022-12-15T18:31:49.770Z,34.10
2022-12-15T18:36:57.841Z,30.60
2022-12-15T18:42:29.518Z,28.00
2022-12-15T18:47:40.183Z,24.90
2022-12-15T18:52:49.262Z,34.40
2022-12-15T18:57:59.012Z,35.60
2022-12-15T19:03:06.669Z,32.70
2022-12-15T19:08:20.446Z,35.70
2022-12-15T19:13:32.000Z,30.70
2022-12-15T19:18:57.094Z,28.20
2022-12-15T19:32:23.096Z,30.60
2022-12-15T19:37:32.177Z,30.70
2022-12-15T19:42:41.165Z,35.20
2022-12-15T19:47:48.979Z,31.90
2022-12-15T19:52:59.407Z,28.10
2022-12-15T20:08:17.720Z,27.90
2022-12-15T20:13:22.556Z,29.70
2022-12-15T20:18:26.862Z,20.40
2022-12-15T20:23:31.596Z,25.90
2022-12-15T20:28:36.265Z,19.20
2022-12-15T20:33:45.266Z,23.90
2022-12-15T20:38:54.717Z,23.50
2022-12-15T20:44:28.694Z,17.70
2022-12-15T20:49:33.068Z,39.00
2022-12-15T20:54:37.230Z,38.90
2022-12-15T20:59:42.009Z,25.60
2022-12-15T21:04:47.006Z,24.30
2022-12-15T21:09:51.228Z,20.40
2022-12-15T21:14:55.456Z,21.50
2022-12-15T21:20:00.531Z,19.40
2022-12-15T21:25:15.023Z,22.00
2022-12-15T21:30:25.489Z,19.50
2022-12-15T21:35:31.884Z,21.20
2022-12-15T21:41:05.352Z,19.60
2022-12-15T21:46:15.421Z,19.40
2022-12-15T21:51:19.539Z,13.50
2022-12-15T21:56:23.492Z,17.90
2022-12-15T22:01:30.414Z,17.20
2022-12-15T22:06:34.496Z,17.40
2022-12-15T22:11:40.355Z,16.00
2022-12-15T22:16:44.788Z,18.10
2022-12-15T22:21:49.323Z,19.70
2022-12-15T22:26:53.295Z,15.10
2022-12-15T22:31:58.809Z,20.00
2022-12-15T22:37:03.075Z,15.70
2022-12-15T22:42:09.293Z,19.10
2022-12-15T22:47:13.561Z,19.90
2022-12-15T22:52:19.876Z,19.80
2022-12-15T22:57:26.219Z,20.70
2022-12-15T23:02:35.838Z,23.50
2022-12-15T23:07:39.641Z,17.40
2022-12-15T23:12:43.547Z,17.50
2022-12-15T23:17:47.257Z,17.00
2022-12-15T23:22:51.082Z,17.30
2022-12-15T23:27:55.610Z,34.70
2022-12-15T23:32:59.446Z,17.20
2022-12-15T23:43:19.223Z,21.50
2022-12-15T23:48:29.912Z,23.90
2022-12-15T23:53:38.423Z,20.60
2022-12-15T23:58:47.636Z,20.80
